โซล, ประเทศเกาหลีใต้

12:17 PM KST วัน ธันวาคม 21, 2014 (GMT +0900)
IGYEONGG3 | Change Station
CLOSE
Current Station
Personal Weather Stations
Location: Bucheon3, GYEONGGI
Elevation: 115 ft
Nearby Weather Stations

Elev 115 ft 37.53 °N, 126.83 °E | Updated 13 minutes ago

Mostly Cloudy
มีเมฆคลุมเป็นส่วนใหญ่
32.0 ฟาเรนไฮน์
Feels Like 32 ฟาเรนไฮน์
N
1.0
ลม ความผันแปร ลม from ทางทิศตะวันตกและทิศตะวันตกเฉียงใต้
Gusts 6.0 mph

วันนี้
High -- | Low -- ฟาเรนไฮน์
--% Chance of Precip.
Yesterday
High -- | Low -- ฟาเรนไฮน์
Precip. -- นิ้ว
7:42 AM 5:17 PM
เดือนเสี้ยว, 1% visible
ความดัน 30.21 นิ้ว
ทัศนวิสัย 6.2 ไมล์
เมฆ มีเมฆคลุมเป็นส่วนใหญ่ 3000 ft
มีเมฆคลุมเป็นส่วนใหญ่ 16000 ft
ลมหนาว 32 ฟาเรนไฮน์
อุณหภูมิที่อากาศอาจจับตัวเป็นหยาดน้ำค้าง 10 ฟาเรนไฮน์
ความชื้น 40%
Rainfall 0.00 นิ้ว
Snow Depth Not available.
UV 1.2 out of 12
Pollen Not available.
Air Quality Not available.
Flu Activity Not available.
METAR RKSS 210300Z 07002KT 9999 BKN030 BKN160 M04/M23 Q1023 NOSIG

More Conditions Fewer Conditions

ความดัน 30.21 นิ้ว
ทัศนวิสัย 6.2 ไมล์
เมฆ มีเมฆคลุมเป็นส่วนใหญ่ 3000 ft
มีเมฆคลุมเป็นส่วนใหญ่ 16000 ft
ลมหนาว 32 ฟาเรนไฮน์
อุณหภูมิที่อากาศอาจจับตัวเป็นหยาดน้ำค้าง 10 ฟาเรนไฮน์
ความชื้น 40%
Rainfall 0.00 นิ้ว
Snow Depth Not available.
UV 1.2 out of 12
Pollen Not available.
Air Quality Not available.
Flu Activity Not available.
METAR RKSS 210300Z 07002KT 9999 BKN030 BKN160 M04/M23 Q1023 NOSIG

More Conditions Fewer Conditions

10-Day Weather Forecast

Almanac

ดาราศาสตร์

Dec. 21, 2014 Rise Set
Actual Time
Civil Twilight
Nautical Twilight
Astronomical Twilight
Moon
Length Of Visible Light
ความยาวของวัน
Tomorrow will be .
, % of the Moon is Illuminated

Today's Extremes

Country Highs Country Lows

Community

WunderPhotos

Upload Photos

1,779,349 photos uploaded!

WunderBlogs® & News

Nearby

Air Quality

  Air Quality AQ Index Pollutant
Not available.

Snow Depth

Station Depth Elevation

Earthquake Activity

City Distance Mag. Time & Date
Minimum magnitude displayed is 2.5.

Coastal Water Temperatures

สถานที่ อุณหภูมิ

Nearby Weather Stations